sensor_id;sensor_type;location;lat;lon;timestamp;P1;durP1;ratioP1;P2;durP2;ratioP2
72584;SDS011;73873;40.084;32.908;2024-03-17T00:00:44;8.48;;;4.25;;
72584;SDS011;73873;40.084;32.908;2024-03-17T00:03:16;9.13;;;4.60;;
72584;SDS011;73873;40.084;32.908;2024-03-17T00:05:42;10.18;;;4.07;;
72584;SDS011;73873;40.084;32.908;2024-03-17T00:08:07;9.63;;;3.90;;
72584;SDS011;73873;40.084;32.908;2024-03-17T00:10:33;9.67;;;4.53;;
72584;SDS011;73873;40.084;32.908;2024-03-17T00:13:00;9.50;;;4.53;;
72584;SDS011;73873;40.084;32.908;2024-03-17T00:15:26;8.93;;;4.20;;
72584;SDS011;73873;40.084;32.908;2024-03-17T00:17:52;10.40;;;4.57;;
72584;SDS011;73873;40.084;32.908;2024-03-17T00:20:18;8.77;;;4.00;;
72584;SDS011;73873;40.084;32.908;2024-03-17T00:22:45;8.60;;;4.18;;
72584;SDS011;73873;40.084;32.908;2024-03-17T00:25:12;9.30;;;4.43;;
72584;SDS011;73873;40.084;32.908;2024-03-17T00:27:38;9.73;;;4.45;;
72584;SDS011;73873;40.084;32.908;2024-03-17T00:30:05;9.07;;;4.10;;
72584;SDS011;73873;40.084;32.908;2024-03-17T00:32:31;10.45;;;4.68;;
72584;SDS011;73873;40.084;32.908;2024-03-17T00:34:57;8.82;;;4.30;;
72584;SDS011;73873;40.084;32.908;2024-03-17T00:37:23;9.87;;;4.50;;
72584;SDS011;73873;40.084;32.908;2024-03-17T00:39:49;9.30;;;4.32;;
72584;SDS011;73873;40.084;32.908;2024-03-17T00:42:15;9.20;;;4.20;;
72584;SDS011;73873;40.084;32.908;2024-03-17T00:44:41;8.93;;;4.07;;
72584;SDS011;73873;40.084;32.908;2024-03-17T00:47:07;10.30;;;4.50;;
72584;SDS011;73873;40.084;32.908;2024-03-17T00:49:33;11.07;;;4.93;;
72584;SDS011;73873;40.084;32.908;2024-03-17T00:51:58;10.17;;;4.60;;
72584;SDS011;73873;40.084;32.908;2024-03-17T00:54:24;10.15;;;4.68;;
72584;SDS011;73873;40.084;32.908;2024-03-17T00:56:50;9.45;;;4.30;;
72584;SDS011;73873;40.084;32.908;2024-03-17T00:59:16;9.87;;;4.27;;
72584;SDS011;73873;40.084;32.908;2024-03-17T01:01:42;10.27;;;4.30;;
72584;SDS011;73873;40.084;32.908;2024-03-17T01:04:08;9.60;;;4.13;;
72584;SDS011;73873;40.084;32.908;2024-03-17T01:06:34;8.97;;;3.60;;
72584;SDS011;73873;40.084;32.908;2024-03-17T01:08:59;9.77;;;4.57;;
72584;SDS011;73873;40.084;32.908;2024-03-17T01:11:25;9.70;;;4.45;;
72584;SDS011;73873;40.084;32.908;2024-03-17T01:13:51;10.13;;;4.20;;
72584;SDS011;73873;40.084;32.908;2024-03-17T01:16:17;10.30;;;4.43;;
72584;SDS011;73873;40.084;32.908;2024-03-17T01:18:44;9.88;;;4.22;;
72584;SDS011;73873;40.084;32.908;2024-03-17T01:21:10;9.25;;;4.07;;
72584;SDS011;73873;40.084;32.908;2024-03-17T01:26:05;9.20;;;3.90;;
72584;SDS011;73873;40.084;32.908;2024-03-17T01:28:31;10.93;;;5.10;;
72584;SDS011;73873;40.084;32.908;2024-03-17T01:30:56;13.43;;;5.93;;
72584;SDS011;73873;40.084;32.908;2024-03-17T01:33:22;12.63;;;6.00;;
72584;SDS011;73873;40.084;32.908;2024-03-17T01:35:48;13.27;;;6.07;;
72584;SDS011;73873;40.084;32.908;2024-03-17T01:38:14;13.67;;;6.20;;
72584;SDS011;73873;40.084;32.908;2024-03-17T01:40:39;15.68;;;6.18;;
72584;SDS011;73873;40.084;32.908;2024-03-17T01:43:08;12.77;;;5.70;;
72584;SDS011;73873;40.084;32.908;2024-03-17T01:45:35;14.32;;;6.32;;
72584;SDS011;73873;40.084;32.908;2024-03-17T01:48:02;12.50;;;6.35;;
72584;SDS011;73873;40.084;32.908;2024-03-17T01:50:33;11.85;;;5.18;;
72584;SDS011;73873;40.084;32.908;2024-03-17T01:53:04;15.10;;;6.85;;
72584;SDS011;73873;40.084;32.908;2024-03-17T01:55:32;12.77;;;5.93;;
72584;SDS011;73873;40.084;32.908;2024-03-17T01:58:00;13.48;;;5.97;;
72584;SDS011;73873;40.084;32.908;2024-03-17T02:00:28;14.10;;;5.97;;
72584;SDS011;73873;40.084;32.908;2024-03-17T02:04:09;13.93;;;5.97;;
72584;SDS011;73873;40.084;32.908;2024-03-17T02:06:35;14.23;;;6.17;;
72584;SDS011;73873;40.084;32.908;2024-03-17T02:09:01;12.70;;;5.13;;
72584;SDS011;73873;40.084;32.908;2024-03-17T02:11:28;14.45;;;6.43;;
72584;SDS011;73873;40.084;32.908;2024-03-17T02:13:55;14.97;;;6.33;;
72584;SDS011;73873;40.084;32.908;2024-03-17T02:16:22;15.25;;;6.55;;
72584;SDS011;73873;40.084;32.908;2024-03-17T02:18:48;13.90;;;6.47;;
72584;SDS011;73873;40.084;32.908;2024-03-17T02:21:14;16.58;;;7.03;;
72584;SDS011;73873;40.084;32.908;2024-03-17T02:23:44;13.33;;;5.77;;
72584;SDS011;73873;40.084;32.908;2024-03-17T02:26:10;16.73;;;6.85;;
72584;SDS011;73873;40.084;32.908;2024-03-17T02:28:42;16.25;;;7.13;;
72584;SDS011;73873;40.084;32.908;2024-03-17T02:31:09;16.48;;;7.00;;
72584;SDS011;73873;40.084;32.908;2024-03-17T02:33:36;15.80;;;6.93;;
72584;SDS011;73873;40.084;32.908;2024-03-17T02:36:03;15.00;;;6.77;;
72584;SDS011;73873;40.084;32.908;2024-03-17T02:38:30;15.15;;;6.97;;
72584;SDS011;73873;40.084;32.908;2024-03-17T02:40:56;14.55;;;5.80;;
72584;SDS011;73873;40.084;32.908;2024-03-17T02:43:22;12.87;;;4.97;;
72584;SDS011;73873;40.084;32.908;2024-03-17T02:45:48;16.27;;;6.97;;
72584;SDS011;73873;40.084;32.908;2024-03-17T02:48:13;14.68;;;6.95;;
72584;SDS011;73873;40.084;32.908;2024-03-17T02:50:39;13.40;;;6.37;;
72584;SDS011;73873;40.084;32.908;2024-03-17T02:53:05;14.73;;;6.53;;
72584;SDS011;73873;40.084;32.908;2024-03-17T02:55:30;16.43;;;7.43;;
72584;SDS011;73873;40.084;32.908;2024-03-17T02:57:56;15.85;;;6.95;;
72584;SDS011;73873;40.084;32.908;2024-03-17T03:00:22;16.13;;;7.30;;
72584;SDS011;73873;40.084;32.908;2024-03-17T03:02:48;13.93;;;6.53;;
72584;SDS011;73873;40.084;32.908;2024-03-17T03:05:13;12.60;;;5.80;;
72584;SDS011;73873;40.084;32.908;2024-03-17T03:07:39;12.63;;;5.80;;
72584;SDS011;73873;40.084;32.908;2024-03-17T03:10:05;10.87;;;4.87;;
72584;SDS011;73873;40.084;32.908;2024-03-17T03:12:31;9.10;;;4.05;;
72584;SDS011;73873;40.084;32.908;2024-03-17T03:14:58;9.55;;;4.40;;
72584;SDS011;73873;40.084;32.908;2024-03-17T03:17:24;9.97;;;4.70;;
72584;SDS011;73873;40.084;32.908;2024-03-17T03:19:49;9.30;;;4.25;;
72584;SDS011;73873;40.084;32.908;2024-03-17T03:22:15;9.95;;;4.65;;
72584;SDS011;73873;40.084;32.908;2024-03-17T03:24:41;12.53;;;5.83;;
72584;SDS011;73873;40.084;32.908;2024-03-17T03:27:07;13.10;;;5.88;;
72584;SDS011;73873;40.084;32.908;2024-03-17T03:29:33;14.52;;;6.53;;
72584;SDS011;73873;40.084;32.908;2024-03-17T03:31:58;16.10;;;7.73;;
72584;SDS011;73873;40.084;32.908;2024-03-17T03:34:24;15.93;;;7.45;;
72584;SDS011;73873;40.084;32.908;2024-03-17T03:36:50;16.50;;;7.30;;
72584;SDS011;73873;40.084;32.908;2024-03-17T03:39:16;15.13;;;6.60;;
72584;SDS011;73873;40.084;32.908;2024-03-17T03:41:41;17.80;;;7.67;;
72584;SDS011;73873;40.084;32.908;2024-03-17T03:44:07;13.95;;;5.93;;
72584;SDS011;73873;40.084;32.908;2024-03-17T03:46:33;12.23;;;5.87;;
72584;SDS011;73873;40.084;32.908;2024-03-17T03:48:59;10.45;;;4.90;;
72584;SDS011;73873;40.084;32.908;2024-03-17T03:51:24;10.77;;;4.57;;
72584;SDS011;73873;40.084;32.908;2024-03-17T03:53:50;8.23;;;3.88;;
72584;SDS011;73873;40.084;32.908;2024-03-17T03:56:16;9.30;;;4.43;;
72584;SDS011;73873;40.084;32.908;2024-03-17T03:58:42;9.77;;;4.40;;
72584;SDS011;73873;40.084;32.908;2024-03-17T04:01:08;12.10;;;5.10;;
72584;SDS011;73873;40.084;32.908;2024-03-17T04:03:35;10.77;;;4.97;;
72584;SDS011;73873;40.084;32.908;2024-03-17T04:06:05;10.73;;;4.40;;
72584;SDS011;73873;40.084;32.908;2024-03-17T04:08:32;8.68;;;4.20;;
72584;SDS011;73873;40.084;32.908;2024-03-17T04:10:59;9.20;;;4.53;;
72584;SDS011;73873;40.084;32.908;2024-03-17T04:13:25;9.18;;;4.28;;
72584;SDS011;73873;40.084;32.908;2024-03-17T04:15:51;8.57;;;4.00;;
72584;SDS011;73873;40.084;32.908;2024-03-17T04:18:16;8.38;;;3.80;;
72584;SDS011;73873;40.084;32.908;2024-03-17T04:20:42;8.87;;;4.10;;
72584;SDS011;73873;40.084;32.908;2024-03-17T04:23:08;8.38;;;3.60;;
72584;SDS011;73873;40.084;32.908;2024-03-17T04:25:34;8.27;;;3.88;;
72584;SDS011;73873;40.084;32.908;2024-03-17T04:28:00;9.17;;;4.00;;
72584;SDS011;73873;40.084;32.908;2024-03-17T04:30:26;8.18;;;3.47;;
72584;SDS011;73873;40.084;32.908;2024-03-17T04:32:51;8.43;;;3.70;;
72584;SDS011;73873;40.084;32.908;2024-03-17T04:35:17;7.63;;;3.60;;
72584;SDS011;73873;40.084;32.908;2024-03-17T04:37:43;8.90;;;3.83;;
72584;SDS011;73873;40.084;32.908;2024-03-17T04:40:09;11.00;;;5.47;;
72584;SDS011;73873;40.084;32.908;2024-03-17T04:42:35;12.23;;;5.82;;
72584;SDS011;73873;40.084;32.908;2024-03-17T04:45:01;18.10;;;8.90;;
72584;SDS011;73873;40.084;32.908;2024-03-17T04:47:27;18.23;;;8.60;;
72584;SDS011;73873;40.084;32.908;2024-03-17T04:49:53;17.23;;;8.00;;
72584;SDS011;73873;40.084;32.908;2024-03-17T04:52:19;16.70;;;7.60;;
72584;SDS011;73873;40.084;32.908;2024-03-17T04:54:44;15.20;;;7.00;;
72584;SDS011;73873;40.084;32.908;2024-03-17T04:57:10;15.77;;;7.43;;
72584;SDS011;73873;40.084;32.908;2024-03-17T04:59:36;19.80;;;9.03;;
72584;SDS011;73873;40.084;32.908;2024-03-17T05:02:02;22.17;;;9.63;;
72584;SDS011;73873;40.084;32.908;2024-03-17T05:04:28;20.17;;;9.13;;
72584;SDS011;73873;40.084;32.908;2024-03-17T05:06:54;18.27;;;8.43;;
72584;SDS011;73873;40.084;32.908;2024-03-17T05:09:20;19.92;;;8.95;;
72584;SDS011;73873;40.084;32.908;2024-03-17T05:11:46;22.35;;;9.65;;
72584;SDS011;73873;40.084;32.908;2024-03-17T05:14:12;18.67;;;8.80;;
72584;SDS011;73873;40.084;32.908;2024-03-17T05:16:38;17.85;;;7.80;;
72584;SDS011;73873;40.084;32.908;2024-03-17T05:19:04;18.33;;;8.30;;
72584;SDS011;73873;40.084;32.908;2024-03-17T05:21:30;16.83;;;7.55;;
72584;SDS011;73873;40.084;32.908;2024-03-17T05:23:57;16.73;;;5.90;;
72584;SDS011;73873;40.084;32.908;2024-03-17T05:26:23;12.23;;;5.50;;
72584;SDS011;73873;40.084;32.908;2024-03-17T05:28:49;14.25;;;5.95;;
72584;SDS011;73873;40.084;32.908;2024-03-17T05:31:15;9.57;;;4.30;;
72584;SDS011;73873;40.084;32.908;2024-03-17T05:33:41;13.15;;;5.82;;
72584;SDS011;73873;40.084;32.908;2024-03-17T05:36:07;13.27;;;6.20;;
72584;SDS011;73873;40.084;32.908;2024-03-17T05:38:33;14.40;;;6.07;;
72584;SDS011;73873;40.084;32.908;2024-03-17T05:40:59;11.90;;;6.07;;
72584;SDS011;73873;40.084;32.908;2024-03-17T05:43:27;11.98;;;6.10;;
72584;SDS011;73873;40.084;32.908;2024-03-17T05:45:54;13.60;;;6.38;;
72584;SDS011;73873;40.084;32.908;2024-03-17T05:48:22;12.82;;;6.07;;
72584;SDS011;73873;40.084;32.908;2024-03-17T05:50:49;13.00;;;5.77;;
72584;SDS011;73873;40.084;32.908;2024-03-17T05:53:14;11.90;;;5.22;;
72584;SDS011;73873;40.084;32.908;2024-03-17T05:55:40;10.57;;;4.87;;
72584;SDS011;73873;40.084;32.908;2024-03-17T05:58:06;11.73;;;5.27;;
72584;SDS011;73873;40.084;32.908;2024-03-17T06:00:32;12.40;;;5.32;;
72584;SDS011;73873;40.084;32.908;2024-03-17T06:02:58;12.50;;;5.90;;
72584;SDS011;73873;40.084;32.908;2024-03-17T06:05:23;10.57;;;5.80;;
72584;SDS011;73873;40.084;32.908;2024-03-17T06:07:49;11.15;;;5.72;;
72584;SDS011;73873;40.084;32.908;2024-03-17T06:10:15;10.07;;;5.00;;
72584;SDS011;73873;40.084;32.908;2024-03-17T06:12:41;10.82;;;4.85;;
72584;SDS011;73873;40.084;32.908;2024-03-17T06:15:06;8.43;;;4.50;;
72584;SDS011;73873;40.084;32.908;2024-03-17T06:17:33;10.07;;;4.43;;
72584;SDS011;73873;40.084;32.908;2024-03-17T06:19:59;9.63;;;4.88;;
72584;SDS011;73873;40.084;32.908;2024-03-17T06:22:25;9.57;;;4.78;;
72584;SDS011;73873;40.084;32.908;2024-03-17T06:24:51;9.30;;;4.70;;
72584;SDS011;73873;40.084;32.908;2024-03-17T06:27:17;9.20;;;4.35;;
72584;SDS011;73873;40.084;32.908;2024-03-17T06:29:43;11.30;;;4.70;;
72584;SDS011;73873;40.084;32.908;2024-03-17T06:32:09;10.57;;;5.10;;
72584;SDS011;73873;40.084;32.908;2024-03-17T06:34:34;11.37;;;5.03;;
72584;SDS011;73873;40.084;32.908;2024-03-17T06:37:00;8.50;;;4.20;;
72584;SDS011;73873;40.084;32.908;2024-03-17T06:39:26;11.23;;;5.35;;
72584;SDS011;73873;40.084;32.908;2024-03-17T06:41:52;17.00;;;9.00;;
72584;SDS011;73873;40.084;32.908;2024-03-17T06:44:18;12.73;;;6.22;;
72584;SDS011;73873;40.084;32.908;2024-03-17T06:46:44;9.73;;;5.07;;
72584;SDS011;73873;40.084;32.908;2024-03-17T06:49:10;10.93;;;5.47;;
72584;SDS011;73873;40.084;32.908;2024-03-17T06:51:37;11.88;;;6.57;;
72584;SDS011;73873;40.084;32.908;2024-03-17T06:54:03;11.25;;;4.80;;
72584;SDS011;73873;40.084;32.908;2024-03-17T06:56:29;9.23;;;4.53;;
72584;SDS011;73873;40.084;32.908;2024-03-17T06:58:55;9.75;;;4.63;;
72584;SDS011;73873;40.084;32.908;2024-03-17T07:01:21;10.82;;;5.07;;
72584;SDS011;73873;40.084;32.908;2024-03-17T07:03:46;11.97;;;5.47;;
72584;SDS011;73873;40.084;32.908;2024-03-17T07:06:12;9.40;;;4.90;;
72584;SDS011;73873;40.084;32.908;2024-03-17T07:08:41;9.30;;;4.65;;
72584;SDS011;73873;40.084;32.908;2024-03-17T07:11:07;9.37;;;4.57;;
72584;SDS011;73873;40.084;32.908;2024-03-17T07:13:34;8.75;;;4.38;;
72584;SDS011;73873;40.084;32.908;2024-03-17T07:16:03;18.50;;;5.05;;
72584;SDS011;73873;40.084;32.908;2024-03-17T07:18:30;8.50;;;4.50;;
72584;SDS011;73873;40.084;32.908;2024-03-17T07:20:56;9.33;;;4.37;;
72584;SDS011;73873;40.084;32.908;2024-03-17T07:23:28;9.77;;;4.40;;
72584;SDS011;73873;40.084;32.908;2024-03-17T07:25:54;11.77;;;5.50;;
72584;SDS011;73873;40.084;32.908;2024-03-17T07:28:21;9.60;;;4.80;;
72584;SDS011;73873;40.084;32.908;2024-03-17T07:30:48;10.57;;;4.85;;
72584;SDS011;73873;40.084;32.908;2024-03-17T07:33:15;12.77;;;5.35;;
72584;SDS011;73873;40.084;32.908;2024-03-17T07:35:48;10.32;;;4.80;;
72584;SDS011;73873;40.084;32.908;2024-03-17T07:38:14;12.35;;;6.05;;
72584;SDS011;73873;40.084;32.908;2024-03-17T07:40:40;28.00;;;6.33;;
72584;SDS011;73873;40.084;32.908;2024-03-17T07:43:05;12.60;;;5.53;;
72584;SDS011;73873;40.084;32.908;2024-03-17T07:45:31;11.77;;;5.00;;
72584;SDS011;73873;40.084;32.908;2024-03-17T07:47:57;10.43;;;5.70;;
72584;SDS011;73873;40.084;32.908;2024-03-17T07:50:23;11.38;;;6.13;;
72584;SDS011;73873;40.084;32.908;2024-03-17T07:52:48;13.37;;;6.13;;
72584;SDS011;73873;40.084;32.908;2024-03-17T07:55:14;13.70;;;6.05;;
72584;SDS011;73873;40.084;32.908;2024-03-17T07:57:40;12.90;;;5.77;;
72584;SDS011;73873;40.084;32.908;2024-03-17T08:00:06;14.50;;;5.88;;
72584;SDS011;73873;40.084;32.908;2024-03-17T08:02:33;14.75;;;6.05;;
72584;SDS011;73873;40.084;32.908;2024-03-17T08:04:59;11.47;;;5.37;;
72584;SDS011;73873;40.084;32.908;2024-03-17T08:07:27;12.05;;;5.80;;
72584;SDS011;73873;40.084;32.908;2024-03-17T08:09:53;11.70;;;5.43;;
72584;SDS011;73873;40.084;32.908;2024-03-17T08:14:44;13.80;;;5.65;;
72584;SDS011;73873;40.084;32.908;2024-03-17T08:17:10;12.23;;;6.57;;
72584;SDS011;73873;40.084;32.908;2024-03-17T08:19:39;12.60;;;5.70;;
72584;SDS011;73873;40.084;32.908;2024-03-17T08:22:04;12.30;;;6.22;;
72584;SDS011;73873;40.084;32.908;2024-03-17T08:24:30;14.13;;;6.63;;
72584;SDS011;73873;40.084;32.908;2024-03-17T08:26:56;13.70;;;6.20;;
72584;SDS011;73873;40.084;32.908;2024-03-17T08:29:22;11.23;;;5.80;;
72584;SDS011;73873;40.084;32.908;2024-03-17T08:31:50;13.20;;;6.22;;
72584;SDS011;73873;40.084;32.908;2024-03-17T08:34:16;28.55;;;7.80;;
72584;SDS011;73873;40.084;32.908;2024-03-17T08:36:45;14.25;;;6.82;;
72584;SDS011;73873;40.084;32.908;2024-03-17T08:39:11;17.10;;;6.87;;
72584;SDS011;73873;40.084;32.908;2024-03-17T08:41:37;75.68;;;20.45;;
72584;SDS011;73873;40.084;32.908;2024-03-17T08:44:03;20.38;;;12.43;;
72584;SDS011;73873;40.084;32.908;2024-03-17T08:46:29;25.87;;;14.67;;
72584;SDS011;73873;40.084;32.908;2024-03-17T08:48:55;13.07;;;7.05;;
72584;SDS011;73873;40.084;32.908;2024-03-17T08:51:20;22.23;;;9.63;;
72584;SDS011;73873;40.084;32.908;2024-03-17T08:53:46;41.43;;;18.10;;
72584;SDS011;73873;40.084;32.908;2024-03-17T08:56:12;15.05;;;7.63;;
72584;SDS011;73873;40.084;32.908;2024-03-17T08:58:38;11.57;;;6.13;;
72584;SDS011;73873;40.084;32.908;2024-03-17T09:01:07;27.98;;;10.65;;
72584;SDS011;73873;40.084;32.908;2024-03-17T09:03:34;12.77;;;5.82;;
72584;SDS011;73873;40.084;32.908;2024-03-17T09:06:00;12.27;;;6.32;;
72584;SDS011;73873;40.084;32.908;2024-03-17T09:08:26;9.73;;;5.40;;
72584;SDS011;73873;40.084;32.908;2024-03-17T09:10:52;19.73;;;8.15;;
72584;SDS011;73873;40.084;32.908;2024-03-17T09:13:22;13.30;;;6.30;;
72584;SDS011;73873;40.084;32.908;2024-03-17T09:15:56;12.87;;;6.37;;
72584;SDS011;73873;40.084;32.908;2024-03-17T09:18:23;34.20;;;11.15;;
72584;SDS011;73873;40.084;32.908;2024-03-17T09:21:22;16.10;;;6.95;;
72584;SDS011;73873;40.084;32.908;2024-03-17T09:23:41;11.52;;;5.55;;
72584;SDS011;73873;40.084;32.908;2024-03-17T09:26:08;10.00;;;5.10;;
72584;SDS011;73873;40.084;32.908;2024-03-17T09:28:35;10.60;;;5.30;;
72584;SDS011;73873;40.084;32.908;2024-03-17T09:31:02;11.65;;;6.05;;
72584;SDS011;73873;40.084;32.908;2024-03-17T09:33:29;11.52;;;5.63;;
72584;SDS011;73873;40.084;32.908;2024-03-17T09:35:58;10.77;;;5.03;;
72584;SDS011;73873;40.084;32.908;2024-03-17T09:38:26;10.50;;;5.07;;
72584;SDS011;73873;40.084;32.908;2024-03-17T09:40:52;10.30;;;5.27;;
72584;SDS011;73873;40.084;32.908;2024-03-17T09:43:19;11.13;;;4.85;;
72584;SDS011;73873;40.084;32.908;2024-03-17T09:45:46;9.30;;;4.90;;
72584;SDS011;73873;40.084;32.908;2024-03-17T09:48:16;10.38;;;4.80;;
72584;SDS011;73873;40.084;32.908;2024-03-17T09:53:30;10.87;;;5.20;;
72584;SDS011;73873;40.084;32.908;2024-03-17T09:56:08;9.90;;;5.20;;
72584;SDS011;73873;40.084;32.908;2024-03-17T09:58:35;11.32;;;5.35;;
72584;SDS011;73873;40.084;32.908;2024-03-17T10:01:01;13.65;;;6.20;;
72584;SDS011;73873;40.084;32.908;2024-03-17T10:06:12;12.23;;;5.60;;
72584;SDS011;73873;40.084;32.908;2024-03-17T10:08:48;10.65;;;5.68;;
72584;SDS011;73873;40.084;32.908;2024-03-17T10:11:16;12.32;;;5.55;;
72584;SDS011;73873;40.084;32.908;2024-03-17T10:14:03;12.25;;;5.57;;
72584;SDS011;73873;40.084;32.908;2024-03-17T10:16:33;11.27;;;4.97;;
72584;SDS011;73873;40.084;32.908;2024-03-17T10:19:16;10.82;;;5.00;;
72584;SDS011;73873;40.084;32.908;2024-03-17T10:21:46;9.68;;;4.63;;
72584;SDS011;73873;40.084;32.908;2024-03-17T10:24:13;9.95;;;4.55;;
72584;SDS011;73873;40.084;32.908;2024-03-17T10:26:59;9.97;;;4.87;;
72584;SDS011;73873;40.084;32.908;2024-03-17T10:29:37;9.10;;;4.35;;
72584;SDS011;73873;40.084;32.908;2024-03-17T10:32:12;10.13;;;4.18;;
72584;SDS011;73873;40.084;32.908;2024-03-17T10:35:02;9.73;;;4.45;;
72584;SDS011;73873;40.084;32.908;2024-03-17T10:37:31;11.07;;;4.75;;
72584;SDS011;73873;40.084;32.908;2024-03-17T10:39:57;9.77;;;4.60;;
72584;SDS011;73873;40.084;32.908;2024-03-17T10:42:28;9.82;;;4.68;;
72584;SDS011;73873;40.084;32.908;2024-03-17T10:44:54;9.82;;;4.70;;
72584;SDS011;73873;40.084;32.908;2024-03-17T10:47:21;10.30;;;5.10;;
72584;SDS011;73873;40.084;32.908;2024-03-17T10:49:49;11.02;;;5.18;;
72584;SDS011;73873;40.084;32.908;2024-03-17T10:52:16;14.37;;;5.80;;
72584;SDS011;73873;40.084;32.908;2024-03-17T10:54:49;10.23;;;5.60;;
72584;SDS011;73873;40.084;32.908;2024-03-17T10:57:38;11.57;;;5.53;;
72584;SDS011;73873;40.084;32.908;2024-03-17T11:00:14;9.75;;;5.53;;
72584;SDS011;73873;40.084;32.908;2024-03-17T11:02:42;9.45;;;5.10;;
72584;SDS011;73873;40.084;32.908;2024-03-17T11:05:10;12.93;;;5.40;;
72584;SDS011;73873;40.084;32.908;2024-03-17T11:07:39;9.63;;;5.10;;
72584;SDS011;73873;40.084;32.908;2024-03-17T11:10:06;11.18;;;5.25;;
72584;SDS011;73873;40.084;32.908;2024-03-17T11:17:49;20.53;;;8.77;;
72584;SDS011;73873;40.084;32.908;2024-03-17T11:20:17;51.53;;;20.38;;
72584;SDS011;73873;40.084;32.908;2024-03-17T11:22:48;15.60;;;7.15;;
72584;SDS011;73873;40.084;32.908;2024-03-17T11:27:53;9.77;;;4.20;;
72584;SDS011;73873;40.084;32.908;2024-03-17T11:44:15;7.10;;;3.50;;
72584;SDS011;73873;40.084;32.908;2024-03-17T11:46:54;8.35;;;3.25;;
72584;SDS011;73873;40.084;32.908;2024-03-17T11:51:57;9.68;;;3.65;;
72584;SDS011;73873;40.084;32.908;2024-03-17T11:54:25;8.53;;;3.83;;
72584;SDS011;73873;40.084;32.908;2024-03-17T11:57:14;8.15;;;3.50;;
72584;SDS011;73873;40.084;32.908;2024-03-17T11:59:52;8.88;;;3.60;;
72584;SDS011;73873;40.084;32.908;2024-03-17T12:02:29;6.97;;;3.38;;
72584;SDS011;73873;40.084;32.908;2024-03-17T12:04:57;8.15;;;3.83;;
72584;SDS011;73873;40.084;32.908;2024-03-17T12:07:24;7.77;;;3.20;;
72584;SDS011;73873;40.084;32.908;2024-03-17T12:09:51;7.47;;;3.47;;
72584;SDS011;73873;40.084;32.908;2024-03-17T12:12:17;6.97;;;3.30;;
72584;SDS011;73873;40.084;32.908;2024-03-17T12:14:46;7.38;;;3.10;;
72584;SDS011;73873;40.084;32.908;2024-03-17T12:17:12;9.32;;;3.92;;
72584;SDS011;73873;40.084;32.908;2024-03-17T12:19:40;8.17;;;3.67;;
72584;SDS011;73873;40.084;32.908;2024-03-17T12:22:06;7.00;;;3.65;;
72584;SDS011;73873;40.084;32.908;2024-03-17T12:24:33;9.43;;;3.60;;
72584;SDS011;73873;40.084;32.908;2024-03-17T12:27:01;8.65;;;4.20;;
72584;SDS011;73873;40.084;32.908;2024-03-17T12:29:34;11.27;;;4.00;;
72584;SDS011;73873;40.084;32.908;2024-03-17T12:32:04;8.47;;;3.77;;
72584;SDS011;73873;40.084;32.908;2024-03-17T12:34:31;8.30;;;3.60;;
72584;SDS011;73873;40.084;32.908;2024-03-17T12:36:58;7.00;;;3.50;;
72584;SDS011;73873;40.084;32.908;2024-03-17T12:39:25;7.20;;;3.55;;
72584;SDS011;73873;40.084;32.908;2024-03-17T12:42:05;8.63;;;4.00;;
72584;SDS011;73873;40.084;32.908;2024-03-17T12:47:20;7.85;;;3.58;;
72584;SDS011;73873;40.084;32.908;2024-03-17T12:49:48;8.30;;;3.80;;
72584;SDS011;73873;40.084;32.908;2024-03-17T12:52:25;8.35;;;4.50;;
72584;SDS011;73873;40.084;32.908;2024-03-17T12:55:03;8.77;;;3.90;;
72584;SDS011;73873;40.084;32.908;2024-03-17T12:57:29;8.03;;;4.13;;
72584;SDS011;73873;40.084;32.908;2024-03-17T12:59:55;8.10;;;4.35;;
72584;SDS011;73873;40.084;32.908;2024-03-17T13:02:20;11.07;;;5.18;;
72584;SDS011;73873;40.084;32.908;2024-03-17T13:04:46;8.60;;;4.60;;
72584;SDS011;73873;40.084;32.908;2024-03-17T13:07:12;7.68;;;3.85;;
72584;SDS011;73873;40.084;32.908;2024-03-17T13:09:38;9.63;;;5.00;;
72584;SDS011;73873;40.084;32.908;2024-03-17T13:12:22;10.02;;;4.38;;
72584;SDS011;73873;40.084;32.908;2024-03-17T13:14:48;7.50;;;4.03;;
72584;SDS011;73873;40.084;32.908;2024-03-17T13:17:14;7.90;;;4.00;;
72584;SDS011;73873;40.084;32.908;2024-03-17T13:19:41;6.57;;;3.40;;
72584;SDS011;73873;40.084;32.908;2024-03-17T13:22:06;7.38;;;3.30;;
72584;SDS011;73873;40.084;32.908;2024-03-17T13:24:32;7.67;;;4.00;;
72584;SDS011;73873;40.084;32.908;2024-03-17T13:26:58;9.20;;;4.30;;
72584;SDS011;73873;40.084;32.908;2024-03-17T13:29:24;10.25;;;3.47;;
72584;SDS011;73873;40.084;32.908;2024-03-17T13:31:49;9.10;;;3.77;;
72584;SDS011;73873;40.084;32.908;2024-03-17T13:34:15;8.00;;;3.50;;
72584;SDS011;73873;40.084;32.908;2024-03-17T13:36:41;7.13;;;3.60;;
72584;SDS011;73873;40.084;32.908;2024-03-17T13:39:07;8.85;;;4.35;;
72584;SDS011;73873;40.084;32.908;2024-03-17T13:41:33;7.60;;;3.87;;
72584;SDS011;73873;40.084;32.908;2024-03-17T13:43:58;9.52;;;3.63;;
72584;SDS011;73873;40.084;32.908;2024-03-17T13:46:24;9.50;;;4.00;;
72584;SDS011;73873;40.084;32.908;2024-03-17T13:48:50;17.53;;;5.93;;
72584;SDS011;73873;40.084;32.908;2024-03-17T13:51:18;9.63;;;3.95;;
72584;SDS011;73873;40.084;32.908;2024-03-17T13:53:44;8.60;;;4.40;;
72584;SDS011;73873;40.084;32.908;2024-03-17T13:56:10;8.57;;;4.10;;
72584;SDS011;73873;40.084;32.908;2024-03-17T13:58:36;10.02;;;3.95;;
72584;SDS011;73873;40.084;32.908;2024-03-17T14:01:01;15.80;;;4.53;;
72584;SDS011;73873;40.084;32.908;2024-03-17T14:03:27;11.37;;;4.40;;
72584;SDS011;73873;40.084;32.908;2024-03-17T14:05:53;9.23;;;3.90;;
72584;SDS011;73873;40.084;32.908;2024-03-17T14:08:19;9.33;;;3.90;;
72584;SDS011;73873;40.084;32.908;2024-03-17T14:10:44;8.90;;;3.70;;
72584;SDS011;73873;40.084;32.908;2024-03-17T14:13:10;9.93;;;3.95;;
72584;SDS011;73873;40.084;32.908;2024-03-17T14:15:36;10.07;;;3.90;;
72584;SDS011;73873;40.084;32.908;2024-03-17T14:18:02;8.77;;;3.45;;
72584;SDS011;73873;40.084;32.908;2024-03-17T14:20:28;9.30;;;3.70;;
72584;SDS011;73873;40.084;32.908;2024-03-17T14:22:53;9.07;;;3.70;;
72584;SDS011;73873;40.084;32.908;2024-03-17T14:25:19;13.98;;;4.00;;
72584;SDS011;73873;40.084;32.908;2024-03-17T14:27:46;14.33;;;4.93;;
72584;SDS011;73873;40.084;32.908;2024-03-17T14:30:15;11.38;;;4.72;;
72584;SDS011;73873;40.084;32.908;2024-03-17T14:32:43;10.25;;;5.07;;
72584;SDS011;73873;40.084;32.908;2024-03-17T14:35:12;9.80;;;4.38;;
72584;SDS011;73873;40.084;32.908;2024-03-17T14:37:40;15.05;;;4.38;;
72584;SDS011;73873;40.084;32.908;2024-03-17T14:40:06;10.57;;;4.40;;
72584;SDS011;73873;40.084;32.908;2024-03-17T14:42:33;8.70;;;4.05;;
72584;SDS011;73873;40.084;32.908;2024-03-17T14:44:59;8.23;;;3.85;;
72584;SDS011;73873;40.084;32.908;2024-03-17T14:47:25;10.00;;;4.27;;
72584;SDS011;73873;40.084;32.908;2024-03-17T14:49:50;8.80;;;3.67;;
72584;SDS011;73873;40.084;32.908;2024-03-17T14:52:16;10.52;;;3.95;;
72584;SDS011;73873;40.084;32.908;2024-03-17T14:54:42;9.77;;;3.73;;
72584;SDS011;73873;40.084;32.908;2024-03-17T14:57:08;10.25;;;4.05;;
72584;SDS011;73873;40.084;32.908;2024-03-17T14:59:33;9.53;;;3.83;;
72584;SDS011;73873;40.084;32.908;2024-03-17T15:01:59;8.60;;;4.00;;
72584;SDS011;73873;40.084;32.908;2024-03-17T15:04:25;10.23;;;3.70;;